Main page
Satellite images 15-day forecastsClimateMarine weather Cyclones Lightning AirportsFAQ Newsletter About
Weather : Europe Africa North America South America Asia Australia-Oceania Others
Languages Contact

Hanover, Germany

Langenhagen

latitude: 52-28N, longitude: 009-41E, elevation: 56 m


METAR: EDDV 310250Z 28003KT 9999 FEW033 14/13 Q1014
short-TAF: out of date (50258 hours)
long-TAF: EDDV 301700Z 3018/3118 31010KT 9999 SCT035 BECMG 3018/3021 26005KT BECMG 3106/3109 27010KT

Time: 05:18 (03:18 UTC)

Current weather observation

The report was made 28 minutes ago, at 02:50 UTC  
Wind 03 kt from the West
Temperature 14°C
Humidity 94%
Pressure 1014 hPa
Visibility 10 km or more
Few clouds at a height of 3300 ft

Change units

Forecast

The report was made 9 hours and 51 minutes ago, at 17:27 UTC  
Forecast valid from 30 at 18 UTC to 31 at 18 UTC
Wind 10 kt from the Northwest
Visibility 10 km or more
Scattered clouds at a height of 3500 ft
Becoming
from 30 at 18 UTC to 30 at 21 UTC
Wind 05 kt from the West
Becoming
from 31 at 06 UTC to 31 at 09 UTC
Wind 10 kt from the West
The information on this site is subject to a disclaimer
Weather : Europe Africa North America South America Asia Australia-Oceania Others
Satellite images 15-day forecastsClimateMarine weather Cyclones Lightning AirportsFAQ Languages Contact Newsletter About